KLEB/LEB METAR and TAF weather

Enter ICAO airport designator
Station Type Date Time Source
KLEB METAR 2019/12/09 21:53 UTC NOAA

KLEB 092153Z 00000KT 3/4SM -RA BR FEW001 OVC008 02/01 A2978 RMK AO2 SLP090 P0013 T00220006


Station Type Date Time Source
KLEB Decoded METAR 2019/12/09 21:53 UTC NOAA

LEBANON MUNICIPAL AIRPORT, NH, United States (KLEB) 43-38N 072-18W 171M
Dec 09, 2019 - 04:53 PM EST / 2019.12.09 2153 UTC
Wind: Calm:0
Visibility: 3/4 mile(s):0
Sky conditions: overcast
Weather: light rain; mist
Precipitation last hour: 0.13 inches
Temperature: 36.0 F (2.2 C)
Dew Point: 33.1 F (0.6 C)
Relative Humidity: 89%
Pressure (altimeter): 29.78 in. Hg (1008 hPa)
ob: KLEB 092153Z 00000KT 3/4SM -RA BR FEW001 OVC008 02/01 A2978 RMK AO2 SLP090 P0013 T00220006
cycle: 22

Station Type Date Time Source
KLEB TAF 2019/12/09 18:27 UTC NOAA

TAF KLEB 091725Z 0918/1018 00000KT 2SM -RA BKN006 OVC012 WS020/22030KT
FM092000 16004KT 2SM -RA BR OVC005 WS020/20040KT
TEMPO 0920/0924 1/2SM RA FG
FM100000 19010KT 2SM -RA OVC005 WS020/21045KT
FM100900 20006KT 6SM BR OVC012

Example: see airport list